createdAt,value
2022-10-08T00:04:48.000Z,19.70
2022-10-08T00:14:48.000Z,18.70
2022-10-08T00:24:48.000Z,17.80
2022-10-08T00:34:48.000Z,16.70
2022-10-08T00:44:49.000Z,18.20
2022-10-08T00:54:49.000Z,15.80
2022-10-08T01:14:50.000Z,14.80
2022-10-08T01:24:50.000Z,17.90
2022-10-08T01:34:50.000Z,17.30
2022-10-08T01:44:50.000Z,12.60
2022-10-08T01:54:51.000Z,15.80
2022-10-08T02:04:51.000Z,14.20
2022-10-08T02:14:51.000Z,17.40
2022-10-08T02:24:52.000Z,15.30
2022-10-08T02:44:52.000Z,16.70
2022-10-08T02:54:53.000Z,17.40
2022-10-08T03:04:53.000Z,17.40
2022-10-08T03:14:53.000Z,21.00
2022-10-08T03:24:54.000Z,19.50
2022-10-08T03:34:54.000Z,23.30
2022-10-08T03:44:54.000Z,21.50
2022-10-08T03:54:55.000Z,16.90
2022-10-08T04:14:55.000Z,19.00
2022-10-08T04:24:56.000Z,21.20
2022-10-08T04:34:56.000Z,23.60
2022-10-08T04:44:57.000Z,25.00
2022-10-08T04:54:57.000Z,29.50
2022-10-08T05:04:57.000Z,31.50
2022-10-08T05:14:58.000Z,28.00
2022-10-08T05:24:58.000Z,20.30
2022-10-08T05:44:59.000Z,18.00
2022-10-08T05:54:59.000Z,15.60
2022-10-08T06:04:59.000Z,14.60
2022-10-08T06:15:00.000Z,13.60
2022-10-08T06:25:00.000Z,12.50
2022-10-08T06:35:00.000Z,13.30
2022-10-08T06:45:01.000Z,15.80
2022-10-08T07:20:18.000Z,12.60
2022-10-08T07:20:18.000Z,9.50
2022-10-08T07:30:18.000Z,8.50
2022-10-08T07:40:18.000Z,8.40
2022-10-08T07:50:17.000Z,8.60
2022-10-08T08:00:17.000Z,7.90
2022-10-08T08:10:17.000Z,9.00
2022-10-08T08:20:16.000Z,6.10
2022-10-08T08:30:16.000Z,5.70
2022-10-08T08:50:15.000Z,5.60
2022-10-08T09:00:15.000Z,5.40
2022-10-08T09:10:14.000Z,5.60
2022-10-08T09:20:14.000Z,5.10
2022-10-08T09:30:14.000Z,4.90
2022-10-08T09:40:13.000Z,4.90
2022-10-08T09:50:13.000Z,5.40
2022-10-08T10:00:12.000Z,4.30
2022-10-08T10:20:11.000Z,4.30
2022-10-08T10:30:11.000Z,4.60
2022-10-08T10:40:10.000Z,3.90
2022-10-08T10:50:10.000Z,4.70
2022-10-08T11:00:09.000Z,4.80
2022-10-08T11:10:09.000Z,4.50
2022-10-08T11:20:08.000Z,7.70
2022-10-08T11:30:08.000Z,3.80
2022-10-08T11:50:07.000Z,4.00
2022-10-08T12:00:06.000Z,3.70
2022-10-08T12:10:06.000Z,3.60
2022-10-08T12:20:05.000Z,4.30
2022-10-08T12:30:05.000Z,3.20
2022-10-08T12:40:05.000Z,3.30
2022-10-08T12:50:04.000Z,3.20
2022-10-08T13:00:04.000Z,3.70
2022-10-08T13:20:03.000Z,3.90
2022-10-08T13:30:02.000Z,4.20
2022-10-08T13:40:02.000Z,4.60
2022-10-08T13:50:02.000Z,4.80
2022-10-08T14:00:01.000Z,4.50
2022-10-08T14:10:01.000Z,5.10
2022-10-08T14:20:01.000Z,5.00
2022-10-08T14:30:00.000Z,5.00
2022-10-08T14:50:00.000Z,5.20
2022-10-08T15:00:00.000Z,4.70
2022-10-08T15:09:59.000Z,4.90
2022-10-08T15:19:59.000Z,5.30
2022-10-08T15:29:59.000Z,5.50
2022-10-08T15:39:58.000Z,5.50
2022-10-08T15:49:58.000Z,4.90
2022-10-08T15:59:58.000Z,4.10
2022-10-08T16:19:57.000Z,3.30
2022-10-08T16:29:57.000Z,4.60
2022-10-08T16:39:56.000Z,5.00
2022-10-08T16:49:56.000Z,4.70
2022-10-08T16:59:56.000Z,4.90
2022-10-08T17:09:56.000Z,7.80
2022-10-08T17:19:55.000Z,10.20
2022-10-08T17:29:55.000Z,8.20
2022-10-08T17:49:55.000Z,8.30
2022-10-08T17:59:55.000Z,19.00
2022-10-08T18:09:55.000Z,8.60
2022-10-08T18:19:54.000Z,10.30
2022-10-08T18:29:54.000Z,8.60
2022-10-08T18:39:54.000Z,6.70
2022-10-08T18:49:54.000Z,9.00
2022-10-08T18:59:54.000Z,7.60
2022-10-08T19:19:54.000Z,6.60
2022-10-08T19:29:54.000Z,6.90
2022-10-08T19:39:54.000Z,9.50
2022-10-08T19:49:54.000Z,8.10
2022-10-08T19:59:54.000Z,11.10
2022-10-08T20:09:54.000Z,10.00
2022-10-08T20:09:54.000Z,10.00
2022-10-08T20:40:12.000Z,9.50
2022-10-08T20:40:12.000Z,10.60
2022-10-08T21:10:29.000Z,9.90
2022-10-08T21:10:29.000Z,8.10
2022-10-08T21:20:29.000Z,11.10
2022-10-08T21:30:30.000Z,12.00
2022-10-08T21:40:30.000Z,13.80
2022-10-08T21:50:30.000Z,11.90
2022-10-08T22:00:30.000Z,14.50
2022-10-08T22:10:30.000Z,14.70
2022-10-08T22:20:31.000Z,14.10
2022-10-08T22:40:31.000Z,14.00
2022-10-08T22:50:32.000Z,13.60
2022-10-08T23:00:32.000Z,13.90
2022-10-08T23:10:32.000Z,16.60
2022-10-08T23:20:33.000Z,13.50
2022-10-08T23:30:33.000Z,11.90
2022-10-08T23:40:33.000Z,14.70
2022-10-08T23:50:34.000Z,16.50
